sensor_id;sensor_type;location;lat;lon;timestamp;P1;durP1;ratioP1;P2;durP2;ratioP2
26102;SDS011;69760;49.380;8.998;2024-02-15T06:05:38;7.97;;;5.10;;
26102;SDS011;69760;49.380;8.998;2024-02-15T06:08:05;8.85;;;5.90;;
26102;SDS011;69760;49.380;8.998;2024-02-15T06:10:30;8.90;;;5.85;;
26102;SDS011;69760;49.380;8.998;2024-02-15T06:39:29;14.77;;;8.35;;
26102;SDS011;69760;49.380;8.998;2024-02-15T06:42:07;14.15;;;8.73;;
26102;SDS011;69760;49.380;8.998;2024-02-15T06:44:33;13.48;;;9.07;;
26102;SDS011;69760;49.380;8.998;2024-02-15T06:47:00;19.63;;;10.95;;
26102;SDS011;69760;49.380;8.998;2024-02-15T06:49:26;17.60;;;10.20;;
26102;SDS011;69760;49.380;8.998;2024-02-15T09:56:47;4.82;;;2.78;;
26102;SDS011;69760;49.380;8.998;2024-02-15T09:59:15;5.63;;;2.65;;
26102;SDS011;69760;49.380;8.998;2024-02-15T10:01:41;5.50;;;2.33;;
26102;SDS011;69760;49.380;8.998;2024-02-15T10:04:08;7.38;;;3.03;;
26102;SDS011;69760;49.380;8.998;2024-02-15T10:06:33;5.50;;;2.60;;
26102;SDS011;69760;49.380;8.998;2024-02-15T10:09:41;6.10;;;2.83;;
26102;SDS011;69760;49.380;8.998;2024-02-15T10:11:57;6.80;;;2.70;;
26102;SDS011;69760;49.380;8.998;2024-02-15T10:32:34;5.45;;;2.63;;
26102;SDS011;69760;49.380;8.998;2024-02-15T10:35:00;4.13;;;2.47;;
26102;SDS011;69760;49.380;8.998;2024-02-15T10:37:29;5.95;;;2.65;;
26102;SDS011;69760;49.380;8.998;2024-02-15T10:40:07;5.38;;;2.50;;
26102;SDS011;69760;49.380;8.998;2024-02-15T10:42:33;4.85;;;2.40;;
26102;SDS011;69760;49.380;8.998;2024-02-15T10:45:01;4.78;;;2.30;;
26102;SDS011;69760;49.380;8.998;2024-02-15T10:47:29;5.55;;;2.50;;
26102;SDS011;69760;49.380;8.998;2024-02-15T10:49:55;3.88;;;2.40;;
26102;SDS011;69760;49.380;8.998;2024-02-15T10:52:22;5.75;;;2.53;;
26102;SDS011;69760;49.380;8.998;2024-02-15T10:54:56;6.85;;;2.55;;
26102;SDS011;69760;49.380;8.998;2024-02-15T10:57:29;5.50;;;2.58;;
26102;SDS011;69760;49.380;8.998;2024-02-15T10:59:58;4.72;;;2.60;;
26102;SDS011;69760;49.380;8.998;2024-02-15T11:02:36;6.28;;;2.45;;
26102;SDS011;69760;49.380;8.998;2024-02-15T11:05:06;5.57;;;2.45;;
26102;SDS011;69760;49.380;8.998;2024-02-15T11:07:37;5.18;;;2.58;;
26102;SDS011;69760;49.380;8.998;2024-02-15T11:10:04;5.95;;;2.20;;
26102;SDS011;69760;49.380;8.998;2024-02-15T11:12:35;10.40;;;2.63;;
26102;SDS011;69760;49.380;8.998;2024-02-15T11:15:02;4.63;;;2.20;;
26102;SDS011;69760;49.380;8.998;2024-02-15T11:22:58;4.75;;;2.65;;
26102;SDS011;69760;49.380;8.998;2024-02-15T11:25:31;3.95;;;2.13;;
26102;SDS011;69760;49.380;8.998;2024-02-15T11:30:46;4.65;;;2.50;;
26102;SDS011;69760;49.380;8.998;2024-02-15T11:38:34;7.70;;;2.83;;
26102;SDS011;69760;49.380;8.998;2024-02-15T11:43:52;3.50;;;2.17;;
26102;SDS011;69760;49.380;8.998;2024-02-15T11:46:21;6.30;;;1.95;;
26102;SDS011;69760;49.380;8.998;2024-02-15T11:48:51;5.28;;;2.15;;
26102;SDS011;69760;49.380;8.998;2024-02-15T11:51:24;4.15;;;2.22;;
26102;SDS011;69760;49.380;8.998;2024-02-15T11:54:02;3.97;;;1.58;;
26102;SDS011;69760;49.380;8.998;2024-02-15T11:59:13;4.82;;;1.75;;
26102;SDS011;69760;49.380;8.998;2024-02-15T12:01:54;5.18;;;2.20;;
26102;SDS011;69760;49.380;8.998;2024-02-15T12:04:39;2.28;;;1.10;;
26102;SDS011;69760;49.380;8.998;2024-02-15T12:07:23;3.65;;;0.90;;
26102;SDS011;69760;49.380;8.998;2024-02-15T12:10:14;3.80;;;1.10;;
26102;SDS011;69760;49.380;8.998;2024-02-15T12:13:02;1.80;;;1.00;;
26102;SDS011;69760;49.380;8.998;2024-02-15T12:15:58;1.88;;;0.98;;
26102;SDS011;69760;49.380;8.998;2024-02-15T12:18:44;3.53;;;0.82;;
26102;SDS011;69760;49.380;8.998;2024-02-15T12:21:13;2.90;;;1.00;;
26102;SDS011;69760;49.380;8.998;2024-02-15T12:23:42;2.85;;;1.10;;
26102;SDS011;69760;49.380;8.998;2024-02-15T12:26:08;2.50;;;1.08;;
26102;SDS011;69760;49.380;8.998;2024-02-15T12:28:34;2.40;;;0.95;;
26102;SDS011;69760;49.380;8.998;2024-02-15T12:31:01;2.13;;;1.00;;
26102;SDS011;69760;49.380;8.998;2024-02-15T12:33:26;3.20;;;0.90;;
26102;SDS011;69760;49.380;8.998;2024-02-15T12:36:03;2.40;;;0.93;;
26102;SDS011;69760;49.380;8.998;2024-02-15T12:38:30;3.05;;;0.90;;
26102;SDS011;69760;49.380;8.998;2024-02-15T12:40:56;1.50;;;0.90;;
26102;SDS011;69760;49.380;8.998;2024-02-15T12:43:21;2.75;;;0.90;;
26102;SDS011;69760;49.380;8.998;2024-02-15T12:45:47;2.47;;;1.08;;
26102;SDS011;69760;49.380;8.998;2024-02-15T12:48:13;3.47;;;0.90;;
26102;SDS011;69760;49.380;8.998;2024-02-15T12:50:40;1.45;;;0.80;;
26102;SDS011;69760;49.380;8.998;2024-02-15T12:53:06;2.55;;;1.10;;
26102;SDS011;69760;49.380;8.998;2024-02-15T12:55:33;2.97;;;0.90;;
26102;SDS011;69760;49.380;8.998;2024-02-15T12:58:01;2.90;;;0.90;;
26102;SDS011;69760;49.380;8.998;2024-02-15T13:00:33;3.42;;;1.17;;
26102;SDS011;69760;49.380;8.998;2024-02-15T13:03:03;2.75;;;1.05;;
26102;SDS011;69760;49.380;8.998;2024-02-15T13:05:30;1.92;;;0.90;;
26102;SDS011;69760;49.380;8.998;2024-02-15T13:07:56;4.03;;;0.90;;
26102;SDS011;69760;49.380;8.998;2024-02-15T13:10:35;2.70;;;0.90;;
26102;SDS011;69760;49.380;8.998;2024-02-15T13:13:01;2.75;;;1.20;;
26102;SDS011;69760;49.380;8.998;2024-02-15T13:15:27;4.72;;;0.90;;
26102;SDS011;69760;49.380;8.998;2024-02-15T13:17:57;2.95;;;0.77;;
26102;SDS011;69760;49.380;8.998;2024-02-15T13:20:23;3.75;;;1.10;;
26102;SDS011;69760;49.380;8.998;2024-02-15T13:22:57;2.47;;;0.80;;
26102;SDS011;69760;49.380;8.998;2024-02-15T13:25:46;3.55;;;1.08;;
26102;SDS011;69760;49.380;8.998;2024-02-15T13:28:13;3.20;;;0.98;;
26102;SDS011;69760;49.380;8.998;2024-02-15T13:30:39;1.92;;;0.98;;
26102;SDS011;69760;49.380;8.998;2024-02-15T13:33:06;2.97;;;1.00;;
26102;SDS011;69760;49.380;8.998;2024-02-15T13:35:32;2.45;;;0.75;;
26102;SDS011;69760;49.380;8.998;2024-02-15T13:37:57;3.33;;;1.00;;
26102;SDS011;69760;49.380;8.998;2024-02-15T13:40:26;2.58;;;0.93;;
26102;SDS011;69760;49.380;8.998;2024-02-15T13:42:56;2.92;;;0.88;;
26102;SDS011;69760;49.380;8.998;2024-02-15T13:45:30;2.53;;;0.90;;
26102;SDS011;69760;49.380;8.998;2024-02-15T13:47:59;2.97;;;0.90;;
26102;SDS011;69760;49.380;8.998;2024-02-15T13:50:28;2.88;;;1.10;;
26102;SDS011;69760;49.380;8.998;2024-02-15T13:52:55;2.45;;;0.90;;
26102;SDS011;69760;49.380;8.998;2024-02-15T13:55:22;1.90;;;0.80;;
26102;SDS011;69760;49.380;8.998;2024-02-15T13:57:49;4.10;;;0.70;;
26102;SDS011;69760;49.380;8.998;2024-02-15T14:00:15;1.88;;;0.95;;
26102;SDS011;69760;49.380;8.998;2024-02-15T14:05:18;1.42;;;0.60;;
26102;SDS011;69760;49.380;8.998;2024-02-15T14:07:47;1.77;;;0.80;;
26102;SDS011;69760;49.380;8.998;2024-02-15T14:10:14;1.50;;;0.80;;
26102;SDS011;69760;49.380;8.998;2024-02-15T14:12:43;3.55;;;0.98;;
26102;SDS011;69760;49.380;8.998;2024-02-15T14:15:09;1.42;;;0.70;;
26102;SDS011;69760;49.380;8.998;2024-02-15T14:17:36;1.98;;;0.90;;
26102;SDS011;69760;49.380;8.998;2024-02-15T14:20:02;4.82;;;0.90;;
26102;SDS011;69760;49.380;8.998;2024-02-15T14:22:33;1.75;;;0.60;;
26102;SDS011;69760;49.380;8.998;2024-02-15T14:24:59;2.30;;;0.95;;
26102;SDS011;69760;49.380;8.998;2024-02-15T14:27:24;2.03;;;0.73;;
26102;SDS011;69760;49.380;8.998;2024-02-15T14:29:50;2.90;;;0.85;;
26102;SDS011;69760;49.380;8.998;2024-02-15T14:32:34;3.67;;;0.80;;
26102;SDS011;69760;49.380;8.998;2024-02-15T14:35:18;3.13;;;0.80;;
26102;SDS011;69760;49.380;8.998;2024-02-15T14:37:45;1.33;;;0.88;;
26102;SDS011;69760;49.380;8.998;2024-02-15T14:40:11;4.65;;;1.13;;
26102;SDS011;69760;49.380;8.998;2024-02-15T14:42:40;1.90;;;0.88;;
26102;SDS011;69760;49.380;8.998;2024-02-15T14:45:07;1.65;;;0.80;;
26102;SDS011;69760;49.380;8.998;2024-02-15T14:47:36;2.58;;;0.80;;
26102;SDS011;69760;49.380;8.998;2024-02-15T14:50:02;2.50;;;1.05;;
26102;SDS011;69760;49.380;8.998;2024-02-15T14:52:32;1.85;;;0.80;;
26102;SDS011;69760;49.380;8.998;2024-02-15T14:54:59;1.15;;;0.80;;
26102;SDS011;69760;49.380;8.998;2024-02-15T14:57:24;2.40;;;0.90;;
26102;SDS011;69760;49.380;8.998;2024-02-15T14:59:50;2.10;;;0.98;;
26102;SDS011;69760;49.380;8.998;2024-02-15T15:02:15;3.28;;;0.90;;
26102;SDS011;69760;49.380;8.998;2024-02-15T15:04:41;2.10;;;1.05;;
26102;SDS011;69760;49.380;8.998;2024-02-15T15:07:32;2.80;;;0.95;;
26102;SDS011;69760;49.380;8.998;2024-02-15T15:10:16;3.20;;;1.00;;
26102;SDS011;69760;49.380;8.998;2024-02-15T15:13:00;3.00;;;0.80;;
26102;SDS011;69760;49.380;8.998;2024-02-15T15:15:27;2.33;;;0.85;;
26102;SDS011;69760;49.380;8.998;2024-02-15T15:17:53;1.85;;;0.80;;
26102;SDS011;69760;49.380;8.998;2024-02-15T15:20:19;2.85;;;0.90;;
26102;SDS011;69760;49.380;8.998;2024-02-15T15:22:45;2.92;;;1.30;;
26102;SDS011;69760;49.380;8.998;2024-02-15T15:25:10;2.47;;;1.20;;
26102;SDS011;69760;49.380;8.998;2024-02-15T15:27:36;3.50;;;1.00;;
26102;SDS011;69760;49.380;8.998;2024-02-15T15:30:05;2.92;;;1.00;;
26102;SDS011;69760;49.380;8.998;2024-02-15T15:32:31;2.65;;;0.98;;
26102;SDS011;69760;49.380;8.998;2024-02-15T15:34:58;2.65;;;1.10;;
26102;SDS011;69760;49.380;8.998;2024-02-15T15:37:24;4.05;;;1.02;;
26102;SDS011;69760;49.380;8.998;2024-02-15T15:39:49;2.92;;;0.90;;
26102;SDS011;69760;49.380;8.998;2024-02-15T15:42:16;1.67;;;0.93;;
26102;SDS011;69760;49.380;8.998;2024-02-15T15:44:43;4.80;;;1.10;;
26102;SDS011;69760;49.380;8.998;2024-02-15T15:47:09;3.33;;;1.10;;
26102;SDS011;69760;49.380;8.998;2024-02-15T15:49:34;2.97;;;0.88;;
26102;SDS011;69760;49.380;8.998;2024-02-15T15:52:00;3.20;;;1.10;;
26102;SDS011;69760;49.380;8.998;2024-02-15T15:54:25;3.70;;;0.90;;
26102;SDS011;69760;49.380;8.998;2024-02-15T15:56:51;3.15;;;1.10;;
26102;SDS011;69760;49.380;8.998;2024-02-15T15:59:18;2.45;;;1.08;;
26102;SDS011;69760;49.380;8.998;2024-02-15T16:01:47;2.40;;;1.08;;
26102;SDS011;69760;49.380;8.998;2024-02-15T16:04:13;3.30;;;1.52;;
26102;SDS011;69760;49.380;8.998;2024-02-15T16:06:39;3.65;;;1.83;;
26102;SDS011;69760;49.380;8.998;2024-02-15T16:09:06;6.63;;;2.58;;
26102;SDS011;69760;49.380;8.998;2024-02-15T16:11:33;6.13;;;3.13;;
26102;SDS011;69760;49.380;8.998;2024-02-15T16:13:59;8.98;;;4.25;;
26102;SDS011;69760;49.380;8.998;2024-02-15T16:16:25;7.82;;;3.30;;
26102;SDS011;69760;49.380;8.998;2024-02-15T16:18:50;5.28;;;3.22;;
26102;SDS011;69760;49.380;8.998;2024-02-15T16:21:16;11.85;;;3.88;;
26102;SDS011;69760;49.380;8.998;2024-02-15T16:23:42;6.57;;;3.00;;
26102;SDS011;69760;49.380;8.998;2024-02-15T16:26:07;3.45;;;1.58;;
26102;SDS011;69760;49.380;8.998;2024-02-15T16:28:33;2.03;;;1.05;;
26102;SDS011;69760;49.380;8.998;2024-02-15T16:30:59;2.17;;;0.93;;
26102;SDS011;69760;49.380;8.998;2024-02-15T16:33:24;7.70;;;4.18;;
26102;SDS011;69760;49.380;8.998;2024-02-15T16:35:50;7.47;;;4.78;;
26102;SDS011;69760;49.380;8.998;2024-02-15T16:38:17;6.57;;;2.60;;
26102;SDS011;69760;49.380;8.998;2024-02-15T16:40:43;3.38;;;1.80;;
26102;SDS011;69760;49.380;8.998;2024-02-15T16:43:08;4.32;;;2.42;;
26102;SDS011;69760;49.380;8.998;2024-02-15T16:45:34;8.40;;;3.60;;
26102;SDS011;69760;49.380;8.998;2024-02-15T16:47:59;6.15;;;3.50;;
26102;SDS011;69760;49.380;8.998;2024-02-15T16:50:27;7.38;;;4.13;;
26102;SDS011;69760;49.380;8.998;2024-02-15T16:52:52;8.25;;;4.38;;
26102;SDS011;69760;49.380;8.998;2024-02-15T16:55:18;6.75;;;3.85;;
26102;SDS011;69760;49.380;8.998;2024-02-15T16:57:44;6.78;;;4.13;;
26102;SDS011;69760;49.380;8.998;2024-02-15T17:00:10;8.27;;;4.00;;
26102;SDS011;69760;49.380;8.998;2024-02-15T17:02:41;5.82;;;3.58;;
26102;SDS011;69760;49.380;8.998;2024-02-15T18:15:08;17.50;;;7.88;;
26102;SDS011;69760;49.380;8.998;2024-02-15T18:17:38;9.82;;;5.05;;
26102;SDS011;69760;49.380;8.998;2024-02-15T18:20:05;8.52;;;4.40;;
26102;SDS011;69760;49.380;8.998;2024-02-15T18:22:32;9.85;;;4.15;;
26102;SDS011;69760;49.380;8.998;2024-02-15T18:24:57;10.05;;;5.05;;
26102;SDS011;69760;49.380;8.998;2024-02-15T18:27:23;14.07;;;6.68;;
26102;SDS011;69760;49.380;8.998;2024-02-15T18:29:48;22.42;;;10.23;;
26102;SDS011;69760;49.380;8.998;2024-02-15T18:32:14;15.43;;;8.52;;
26102;SDS011;69760;49.380;8.998;2024-02-15T18:34:42;15.38;;;6.88;;
26102;SDS011;69760;49.380;8.998;2024-02-15T18:37:08;14.35;;;7.28;;
26102;SDS011;69760;49.380;8.998;2024-02-15T18:39:33;15.13;;;8.18;;
26102;SDS011;69760;49.380;8.998;2024-02-15T18:41:59;15.05;;;7.82;;
